Time;durP1;ratioP1;P1;durP2;ratioP2;P2;SDS_P1;SDS_P2;PMS_P1;PMS_P2;Temp;Humidity;BMP_temperature;BMP_pressure;BME280_temperature;BME280_humidity;BME280_pressure;Samples;Min_cycle;Max_cycle;Signal;HPM_P1;HPM_P2
2021/06/08 02:46:58;;;;;;;4.85;2.97;;;16.50;99.90;;;;;;5652723;22;94010;-89
2021/06/08 02:49:24;;;;;;;5.72;4.47;;;;;;;;;;4943514;28;92964;-89
2021/06/08 02:51:50;;;;;;;5.15;4.75;;;;;;;;;;4946220;28;92009;-89
2021/06/08 02:54:18;;;;;;;4.35;3.60;;;16.50;99.90;;;;;;4963005;28;93981;-89
2021/06/08 02:56:45;;;;;;;4.97;4.57;;;;;;;;;;4945808;28;95049;-89
2021/06/08 02:59:31;;;;;;;4.72;4.32;;;16.60;99.90;;;;;;4928538;28;91918;-89
2021/06/08 03:01:58;;;;;;;4.03;3.20;;;16.60;99.90;;;;;;4946221;28;91785;-89
2021/06/08 03:04:29;;;;;;;4.80;4.32;;;16.60;99.90;;;;;;4945749;28;97173;-89
2021/06/08 03:06:59;;;;;;;5.13;4.53;;;16.60;99.90;;;;;;4946208;28;95637;-89
2021/06/08 03:09:34;;;;;;;4.97;4.47;;;16.70;99.90;;;;;;4946212;28;91790;-89
2021/06/08 03:15:38;;;;;;;4.78;4.38;;;16.70;99.90;;;;;;4974383;28;92227;-90
2021/06/08 03:18:09;;;;;;;4.10;3.50;;;16.70;99.90;;;;;;4971132;28;96193;-91
2021/06/08 03:23:59;;;;;;;5.68;5.18;;;16.70;99.90;;;;;;4961199;28;91863;-89
2021/06/08 03:26:27;;;;;;;7.63;4.15;;;16.70;99.90;;;;;;4946577;28;95856;-89
2021/06/08 03:28:57;;;;;;;5.95;4.32;;;16.70;99.90;;;;;;4946737;28;95800;-89
2021/06/08 03:31:25;;;;;;;4.20;3.80;;;16.60;99.90;;;;;;4958036;28;91013;-89
2021/06/08 03:33:52;;;;;;;8.35;6.30;;;16.60;99.90;;;;;;4950142;28;90581;-89
2021/06/08 03:36:18;;;;;;;5.30;4.80;;;16.50;99.90;;;;;;4936234;28;96121;-89
2021/06/08 03:38:45;;;;;;;5.40;4.22;;;16.60;99.90;;;;;;4943911;28;93434;-88
2021/06/08 03:41:11;;;;;;;6.60;5.90;;;;;;;;;;4944524;28;92802;-88
2021/06/08 03:43:38;;;;;;;6.82;4.95;;;16.50;99.90;;;;;;4928762;28;91874;-88
2021/06/08 03:46:04;;;;;;;7.32;5.65;;;;;;;;;;4928042;28;96047;-88
2021/06/08 03:48:30;;;;;;;4.95;4.00;;;16.50;99.90;;;;;;4926367;28;95652;-89
2021/06/08 03:50:56;;;;;;;6.53;5.45;;;;;;;;;;4944350;28;91711;-89
2021/06/08 03:56:48;;;;;;;6.53;5.88;;;16.60;99.90;;;;;;4980990;28;91712;-91
2021/06/08 03:59:15;;;;;;;6.23;5.70;;;16.70;99.90;;;;;;4962857;28;93574;-91
2021/06/08 04:01:42;;;;;;;6.50;5.75;;;16.70;99.90;;;;;;4924544;28;92053;-91
2021/06/08 04:04:08;;;;;;;5.53;4.60;;;16.80;99.90;;;;;;4909738;28;91728;-91
2021/06/08 04:06:35;;;;;;;5.93;5.25;;;;;;;;;;4908364;28;96601;-90
2021/06/08 04:12:23;;;;;;;7.13;4.80;;;;;;;;;;4923109;28;91758;-91
2021/06/08 04:14:52;;;;;;;7.57;4.10;;;16.90;99.90;;;;;;4908255;28;91732;-90
2021/06/08 04:17:19;;;;;;;5.95;4.65;;;17.00;99.90;;;;;;4908838;28;95946;-91
2021/06/08 04:19:47;;;;;;;5.78;5.18;;;16.90;99.90;;;;;;4908195;28;94337;-90
2021/06/08 04:22:26;;;;;;;6.40;5.80;;;17.00;99.90;;;;;;4908741;28;91839;-91
2021/06/08 04:24:52;;;;;;;6.63;6.00;;;;;;;;;;4915246;28;91377;-90
2021/06/08 04:27:24;;;;;;;6.57;5.90;;;17.00;99.90;;;;;;4908116;28;97007;-90
2021/06/08 04:29:50;;;;;;;6.40;5.68;;;;;;;;;;4908279;28;95377;-91
2021/06/08 04:32:18;;;;;;;7.88;5.30;;;17.10;99.90;;;;;;4924995;28;92719;-90
2021/06/08 04:34:51;;;;;;;4.82;4.43;;;17.00;99.90;;;;;;4927039;28;92062;-90
2021/06/08 04:40:40;;;;;;;7.00;5.80;;;17.20;99.90;;;;;;4941409;28;91746;-90
2021/06/08 04:43:06;;;;;;;7.13;6.45;;;;;;;;;;4927016;28;91824;-89
2021/06/08 04:45:32;;;;;;;7.40;5.47;;;17.20;99.90;;;;;;4925944;28;92035;-89
2021/06/08 04:47:58;;;;;;;8.30;6.80;;;17.50;99.90;;;;;;4935206;23;95495;-81
2021/06/08 04:50:23;;;;;;;8.15;7.15;;;17.30;99.90;;;;;;4951087;28;92446;-84
2021/06/08 04:52:56;;;;;;;7.13;6.43;;;17.40;99.90;;;;;;4932663;28;91745;-80
2021/06/08 04:55:23;;;;;;;9.07;7.28;;;17.50;99.90;;;;;;4951588;28;91843;-83
2021/06/08 04:57:53;;;;;;;7.75;5.75;;;17.30;99.90;;;;;;4948579;28;93475;-82
2021/06/08 05:00:23;;;;;;;9.70;7.63;;;17.80;99.90;;;;;;4949297;28;92899;-84
2021/06/08 05:03:05;;;;;;;7.85;7.05;;;17.20;99.90;;;;;;4950133;28;91443;-82
2021/06/08 05:05:32;;;;;;;7.22;6.50;;;17.40;99.90;;;;;;4948056;28;91719;-83
2021/06/08 05:08:07;;;;;;;9.15;7.28;;;17.40;99.90;;;;;;4948737;28;91826;-82
2021/06/08 05:10:37;;;;;;;12.00;8.32;;;17.10;99.90;;;;;;4949337;28;92773;-82
2021/06/08 05:13:05;;;;;;;11.27;8.23;;;17.80;99.90;;;;;;4948661;28;92008;-83
2021/06/08 05:18:53;;;;;;;12.93;8.57;;;17.60;99.90;;;;;;4944846;28;91331;-85
2021/06/08 05:21:20;;;;;;;10.18;8.20;;;17.80;99.90;;;;;;4947607;28;91961;-84
2021/06/08 05:23:50;;;;;;;12.77;8.35;;;17.90;99.90;;;;;;4947828;28;92865;-84
2021/06/08 05:26:17;;;;;;;11.75;7.82;;;18.00;99.90;;;;;;4948321;28;91489;-84
2021/06/08 05:28:43;;;;;;;10.20;6.78;;;18.10;99.90;;;;;;4928596;28;94697;-84
2021/06/08 05:31:09;;;;;;;11.45;8.10;;;18.10;99.90;;;;;;4939667;28;92054;-84
2021/06/08 05:33:35;;;;;;;11.52;9.27;;;;;;;;;;4934454;28;91239;-84
2021/06/08 05:36:01;;;;;;;10.88;9.57;;;18.00;99.90;;;;;;4949777;28;91920;-84
2021/06/08 05:38:49;;;;;;;10.20;9.10;;;18.40;99.90;;;;;;4936569;28;92267;-84
2021/06/08 05:41:15;;;;;;;9.52;8.48;;;;;;;;;;4933935;28;92920;-84
2021/06/08 05:43:42;;;;;;;8.60;7.05;;;18.50;99.90;;;;;;4943524;28;91949;-84
2021/06/08 05:46:10;;;;;;;9.00;6.25;;;18.60;99.90;;;;;;4945104;28;92100;-84
2021/06/08 05:48:37;;;;;;;9.13;7.97;;;19.30;99.90;;;;;;4932992;28;92687;-85
2021/06/08 05:51:04;;;;;;;7.10;6.07;;;18.60;99.90;;;;;;4936111;28;92190;-84
2021/06/08 05:53:31;;;;;;;8.23;6.80;;;18.70;99.90;;;;;;4928155;28;92146;-84
2021/06/08 05:55:57;;;;;;;7.07;5.90;;;18.80;99.90;;;;;;4929440;28;91922;-82
2021/06/08 05:58:30;;;;;;;7.80;5.95;;;18.80;99.90;;;;;;4927192;28;92386;-83
2021/06/08 06:00:58;;;;;;;7.95;7.13;;;19.50;99.90;;;;;;4929983;28;91992;-84
2021/06/08 06:03:26;;;;;;;8.30;7.38;;;18.80;99.90;;;;;;4920118;28;92107;-84
2021/06/08 06:05:53;;;;;;;5.63;5.00;;;18.80;99.90;;;;;;4927395;28;90906;-84
2021/06/08 06:08:19;;;;;;;7.38;6.68;;;19.40;99.90;;;;;;4921617;28;91959;-84
2021/06/08 06:10:46;;;;;;;8.18;7.10;;;19.40;99.90;;;;;;4918030;28;92144;-84
2021/06/08 06:13:18;;;;;;;7.40;5.53;;;18.90;99.90;;;;;;4924320;28;93926;-84
2021/06/08 06:15:47;;;;;;;6.53;5.20;;;19.00;99.90;;;;;;4917736;28;91925;-83
2021/06/08 06:18:20;;;;;;;6.47;5.88;;;19.00;99.90;;;;;;4929381;28;92358;-85
2021/06/08 06:20:55;;;;;;;6.97;6.38;;;19.10;99.90;;;;;;4923308;28;92076;-85
2021/06/08 06:23:23;;;;;;;6.72;6.10;;;19.40;99.90;;;;;;4928023;28;92090;-84
2021/06/08 06:25:50;;;;;;;5.80;4.90;;;19.10;99.90;;;;;;4922053;28;91918;-83
2021/06/08 06:28:18;;;;;;;4.88;4.43;;;19.30;99.90;;;;;;4916780;28;93274;-83
2021/06/08 06:30:44;;;;;;;4.18;3.78;;;19.40;99.90;;;;;;4929963;28;91880;-84
2021/06/08 06:33:12;;;;;;;6.28;5.78;;;20.20;99.90;;;;;;4929599;28;92001;-85
2021/06/08 06:35:37;;;;;;;5.13;4.63;;;19.60;99.90;;;;;;4930000;28;91991;-84
2021/06/08 06:38:06;;;;;;;6.13;5.60;;;19.20;99.90;;;;;;4927593;28;92876;-84
2021/06/08 06:40:34;;;;;;;10.07;7.35;;;19.80;99.90;;;;;;4930728;28;93252;-85
2021/06/08 06:43:02;;;;;;;7.00;6.30;;;20.60;99.90;;;;;;4923700;28;91883;-85
2021/06/08 06:45:30;;;;;;;7.32;6.63;;;20.50;99.90;;;;;;4926314;28;91963;-85
2021/06/08 06:48:02;;;;;;;7.00;6.30;;;20.20;99.90;;;;;;4384532;28;15072121;-84
2021/06/08 06:50:30;;;;;;;6.30;5.70;;;20.20;99.90;;;;;;4927029;28;92015;-85
2021/06/08 06:52:56;;;;;;;6.10;5.60;;;20.30;99.90;;;;;;4919769;28;92128;-83
2021/06/08 06:55:24;;;;;;;6.30;5.80;;;21.20;99.90;;;;;;4929626;28;92279;-85
2021/06/08 06:57:51;;;;;;;5.07;4.60;;;20.60;99.90;;;;;;4930229;28;91978;-85
2021/06/08 07:00:17;;;;;;;6.35;5.85;;;20.90;99.90;;;;;;4923457;28;92028;-85
2021/06/08 07:02:45;;;;;;;6.90;6.30;;;21.00;99.90;;;;;;4930271;28;93530;-85
2021/06/08 07:05:17;;;;;;;6.65;6.13;;;21.00;99.90;;;;;;4925255;28;94279;-85
2021/06/08 07:07:45;;;;;;;5.95;5.20;;;21.10;99.90;;;;;;4924855;28;92004;-84
2021/06/08 07:10:13;;;;;;;5.35;4.85;;;21.30;99.90;;;;;;4920695;28;91599;-84
2021/06/08 07:12:45;;;;;;;5.70;4.68;;;21.50;99.90;;;;;;4916880;28;91981;-84
2021/06/08 07:15:12;;;;;;;4.95;4.45;;;21.50;99.90;;;;;;4926506;28;92341;-84
2021/06/08 07:17:39;;;;;;;6.68;6.18;;;21.70;99.90;;;;;;4926799;28;91713;-84
2021/06/08 07:20:06;;;;;;;5.32;4.82;;;21.70;99.90;;;;;;4926466;28;91222;-84
2021/06/08 07:22:34;;;;;;;4.75;4.35;;;21.90;99.90;;;;;;4932056;28;92332;-86
2021/06/08 07:25:02;;;;;;;6.40;5.95;;;22.70;99.90;;;;;;4933420;28;92070;-83
2021/06/08 07:27:28;;;;;;;5.57;5.07;;;22.50;99.90;;;;;;4932515;28;92536;-84
2021/06/08 07:29:54;;;;;;;5.75;4.95;;;22.70;99.90;;;;;;4921360;28;91963;-84
2021/06/08 07:32:24;;;;;;;4.07;3.78;;;23.00;99.90;;;;;;4924370;28;92030;-83
2021/06/08 07:35:02;;;;;;;6.18;5.63;;;23.10;99.90;;;;;;4936839;28;92079;-83
2021/06/08 07:37:29;;;;;;;4.40;4.00;;;23.40;98.80;;;;;;4938093;28;91192;-83
2021/06/08 07:40:01;;;;;;;6.07;5.57;;;23.70;98.10;;;;;;4934963;28;91955;-85
2021/06/08 07:43:04;;;;;;;5.03;3.53;;;23.70;98.30;;;;;;4923575;28;92267;-84
2021/06/08 07:45:49;;;;;;;5.80;5.35;;;23.70;97.30;;;;;;4923731;28;91977;-85
2021/06/08 07:48:20;;;;;;;4.63;4.20;;;24.10;96.60;;;;;;4924873;28;92034;-83
2021/06/08 07:50:49;;;;;;;;;;;24.30;96.00;;;;;;4924527;28;91941;-84
2021/06/08 07:53:19;;;;;;;4.25;3.85;;;24.40;94.70;;;;;;4929693;28;93242;-84
2021/06/08 07:55:46;;;;;;;4.22;3.50;;;24.20;94.60;;;;;;4929343;28;93983;-83
2021/06/08 07:58:13;;;;;;;6.55;5.97;;;;;;;;;;4929309;28;92179;-85
2021/06/08 08:00:40;;;;;;;5.10;4.47;;;24.50;93.50;;;;;;4911938;28;91581;-83
2021/06/08 08:05:52;;;;;;;6.88;6.28;;;;;;;;;;4929917;28;92497;-83
2021/06/08 08:08:19;;;;;;;5.70;4.60;;;25.00;93.80;;;;;;4927136;28;91961;-84
2021/06/08 08:10:46;;;;;;;4.80;4.40;;;25.30;93.70;;;;;;4929231;28;91301;-84
2021/06/08 08:13:16;;;;;;;6.68;6.07;;;25.30;93.60;;;;;;4927583;28;92296;-84
2021/06/08 08:15:45;;;;;;;6.80;6.30;;;25.40;92.80;;;;;;4908722;28;93462;-83
2021/06/08 08:18:11;;;;;;;8.10;7.30;;;;;;;;;;4924984;28;94337;-84
2021/06/08 08:20:53;;;;;;;7.82;6.80;;;25.60;92.00;;;;;;4926473;28;92154;-84
2021/06/08 08:23:21;;;;;;;7.28;6.57;;;25.50;91.70;;;;;;4926425;28;92008;-83
2021/06/08 08:25:47;;;;;;;7.72;6.85;;;25.40;91.90;;;;;;4926951;28;91947;-83
2021/06/08 08:28:14;;;;;;;7.60;6.90;;;25.50;91.20;;;;;;4927073;28;92014;-84
2021/06/08 08:30:41;;;;;;;7.50;6.80;;;25.50;91.50;;;;;;4927157;28;92076;-83
2021/06/08 08:33:07;;;;;;;7.07;6.47;;;25.30;90.30;;;;;;4920821;28;93155;-84
2021/06/08 08:35:35;;;;;;;6.60;6.10;;;24.90;90.30;;;;;;4929065;28;91949;-85
2021/06/08 08:38:02;;;;;;;7.32;6.63;;;24.60;90.60;;;;;;4930069;28;91836;-84
2021/06/08 08:40:28;;;;;;;5.75;5.25;;;24.70;90.90;;;;;;4928114;28;92135;-83
2021/06/08 08:42:54;;;;;;;7.47;6.78;;;24.50;90.20;;;;;;4919926;28;93289;-84
2021/06/08 08:45:21;;;;;;;7.72;7.03;;;24.90;91.40;;;;;;4921832;28;92927;-85
2021/06/08 08:47:47;;;;;;;7.35;6.75;;;24.30;91.40;;;;;;4920150;28;91956;-84
2021/06/08 08:50:15;;;;;;;7.80;7.15;;;24.70;92.60;;;;;;4920111;28;91853;-84
2021/06/08 08:52:56;;;;;;;7.63;6.93;;;24.40;90.70;;;;;;4924977;28;92233;-83
2021/06/08 08:55:27;;;;;;;5.25;4.68;;;25.00;90.80;;;;;;4925679;28;92324;-83
2021/06/08 08:57:54;;;;;;;6.78;6.18;;;25.80;88.60;;;;;;4926218;28;92133;-84
2021/06/08 09:00:22;;;;;;;7.30;6.60;;;27.30;83.30;;;;;;4926738;28;90970;-83
2021/06/08 09:02:49;;;;;;;7.93;7.22;;;28.10;80.00;;;;;;4920994;28;93119;-83
2021/06/08 09:05:16;;;;;;;7.65;7.00;;;28.50;80.30;;;;;;4924271;28;92433;-82
2021/06/08 09:07:41;;;;;;;7.00;6.30;;;29.00;76.60;;;;;;4924547;28;92947;-82
2021/06/08 09:10:09;;;;;;;7.47;6.78;;;29.80;74.40;;;;;;4916892;28;92093;-83
2021/06/08 09:12:36;;;;;;;7.15;6.60;;;30.00;70.60;;;;;;4918008;28;92036;-83
2021/06/08 09:15:05;;;;;;;5.50;5.00;;;30.40;71.00;;;;;;4923859;28;92753;-83
2021/06/08 09:17:31;;;;;;;5.03;4.60;;;31.10;64.50;;;;;;4919052;28;91639;-84
2021/06/08 09:19:57;;;;;;;4.50;4.10;;;31.60;64.10;;;;;;4925178;28;92787;-84
2021/06/08 09:22:43;;;;;;;5.60;5.05;;;32.50;62.50;;;;;;4925252;28;92241;-84
2021/06/08 09:25:09;;;;;;;5.03;4.63;;;33.10;59.10;;;;;;4926656;28;92293;-85
2021/06/08 09:27:35;;;;;;;5.05;4.65;;;33.70;58.40;;;;;;4924590;28;91884;-85
2021/06/08 09:30:13;;;;;;;5.20;4.75;;;34.40;56.60;;;;;;4926791;28;92094;-85
2021/06/08 09:32:39;;;;;;;6.18;5.78;;;35.60;51.10;;;;;;4924493;28;93563;-85
2021/06/08 09:35:06;;;;;;;5.80;5.40;;;35.80;49.70;;;;;;4927307;28;92077;-84
2021/06/08 09:37:36;;;;;;;7.22;6.72;;;35.90;51.30;;;;;;4926153;28;91795;-85
2021/06/08 09:40:25;;;;;;;7.32;6.82;;;36.00;47.50;;;;;;4923303;28;91839;-85
2021/06/08 09:43:09;;;;;;;7.47;6.77;;;35.10;47.50;;;;;;4923575;28;93200;-85
2021/06/08 09:45:46;;;;;;;7.50;6.93;;;34.00;49.40;;;;;;4922885;28;92308;-85
2021/06/08 09:48:13;;;;;;;7.07;6.55;;;34.00;49.80;;;;;;4915719;28;91637;-85
2021/06/08 09:50:44;;;;;;;7.00;5.95;;;33.90;50.20;;;;;;4919381;28;91417;-85
2021/06/08 09:53:18;;;;;;;6.85;6.40;;;33.70;49.70;;;;;;4924180;28;92597;-85
2021/06/08 09:56:05;;;;;;;6.28;5.85;;;34.90;48.90;;;;;;4921714;28;91596;-85
2021/06/08 09:58:32;;;;;;;6.95;6.53;;;36.70;48.10;;;;;;4902078;28;93195;-85
2021/06/08 10:01:21;;;;;;;6.00;5.63;;;37.80;45.30;;;;;;4922134;28;92062;-85
2021/06/08 10:03:57;;;;;;;5.50;5.20;;;39.40;41.80;;;;;;4925788;28;92348;-86
2021/06/08 10:06:38;;;;;;;5.25;4.88;;;40.20;39.50;;;;;;4924891;28;93451;-85
2021/06/08 10:09:07;;;;;;;5.50;5.20;;;41.10;38.50;;;;;;4927059;28;92352;-86
2021/06/08 10:11:34;;;;;;;4.43;4.13;;;42.10;38.90;;;;;;4924523;28;91749;-86
2021/06/08 10:14:12;;;;;;;6.80;6.40;;;42.60;37.30;;;;;;4927539;28;92024;-83
2021/06/08 10:16:39;;;;;;;6.57;6.18;;;43.10;36.70;;;;;;4925146;28;91327;-86
2021/06/08 10:19:05;;;;;;;6.53;6.05;;;43.20;37.30;;;;;;4925054;28;91735;-84
2021/06/08 10:21:35;;;;;;;6.25;5.85;;;43.00;37.00;;;;;;4924278;28;92025;-86
2021/06/08 10:24:11;;;;;;;6.97;6.57;;;42.60;35.60;;;;;;4924551;28;93408;-84
2021/06/08 10:26:38;;;;;;;6.15;5.85;;;42.60;35.70;;;;;;4922906;28;92204;-85
2021/06/08 10:29:09;;;;;;;6.85;6.45;;;43.20;35.50;;;;;;4920423;28;93130;-84
2021/06/08 10:31:41;;;;;;;6.30;6.00;;;43.80;34.70;;;;;;4921149;28;92201;-85
2021/06/08 10:34:08;;;;;;;7.15;6.72;;;44.00;33.00;;;;;;4922207;28;92032;-85
2021/06/08 10:36:35;;;;;;;4.18;3.97;;;43.50;33.80;;;;;;4926905;28;92107;-84
2021/06/08 10:39:05;;;;;;;6.25;5.93;;;43.70;33.60;;;;;;4920261;28;92059;-85
2021/06/08 10:41:36;;;;;;;5.88;5.57;;;43.80;33.40;;;;;;4923640;28;91273;-85
2021/06/08 10:44:05;;;;;;;4.20;4.00;;;43.80;33.00;;;;;;4920195;28;92214;-85
2021/06/08 10:46:36;;;;;;;6.22;5.78;;;43.30;32.90;;;;;;4915729;28;93014;-85
2021/06/08 10:49:06;;;;;;;5.57;5.38;;;43.30;33.20;;;;;;4920544;28;93045;-85
2021/06/08 10:51:35;;;;;;;6.35;6.05;;;43.30;33.40;;;;;;4918153;28;92048;-85
2021/06/08 10:54:01;;;;;;;5.72;5.30;;;43.10;33.30;;;;;;4926108;28;91769;-84
2021/06/08 10:56:33;;;;;;;5.32;5.03;;;42.60;33.30;;;;;;4926651;28;91665;-84
2021/06/08 10:58:59;;;;;;;5.55;5.25;;;42.00;33.00;;;;;;4919246;28;91968;-84
2021/06/08 11:01:30;;;;;;;5.47;5.18;;;41.30;33.40;;;;;;4917997;28;92169;-85
2021/06/08 11:03:58;;;;;;;5.18;4.97;;;41.20;34.20;;;;;;4922239;28;91956;-85
2021/06/08 11:06:51;;;;;;;3.72;3.42;;;41.30;34.00;;;;;;4929275;28;91523;-83
2021/06/08 11:09:22;;;;;;;5.40;5.20;;;41.50;34.30;;;;;;4915085;28;91737;-86
2021/06/08 11:11:57;;;;;;;5.72;5.40;;;42.00;33.80;;;;;;4930762;28;92103;-85
2021/06/08 11:17:06;;;;;;;4.90;4.70;;;42.20;33.50;;;;;;4921205;28;94112;-85
2021/06/08 11:19:41;;;;;;;4.82;4.63;;;41.30;33.90;;;;;;4934838;28;91723;-84
2021/06/08 11:22:19;;;;;;;4.90;4.70;;;40.00;35.00;;;;;;4934099;28;91758;-84
2021/06/08 11:24:47;;;;;;;4.60;4.30;;;38.80;35.50;;;;;;4916221;28;92444;-84
2021/06/08 11:30:52;;;;;;;4.97;4.50;;;35.70;39.20;;;;;;4925979;28;91245;-81
2021/06/08 11:33:44;;;;;;;5.28;5.00;;;34.20;41.80;;;;;;4932639;28;91133;-83
2021/06/08 11:36:18;;;;;;;4.50;4.30;;;33.50;42.60;;;;;;4916532;28;92300;-84
2021/06/08 11:38:52;;;;;;;4.82;4.63;;;32.80;43.50;;;;;;4919261;28;92364;-84
2021/06/08 11:41:18;;;;;;;5.15;4.75;;;32.20;44.30;;;;;;4915580;28;92923;-84
2021/06/08 11:43:50;;;;;;;4.93;4.63;;;31.70;45.60;;;;;;4928361;28;91754;-83
2021/06/08 11:46:50;;;;;;;5.10;4.75;;;30.70;47.50;;;;;;4928588;28;93463;-84
2021/06/08 11:49:18;;;;;;;5.18;4.88;;;30.60;47.90;;;;;;4931449;28;91724;-83
2021/06/08 11:55:23;;;;;;;4.88;4.57;;;30.40;49.70;;;;;;4930143;28;91739;-84
2021/06/08 11:57:50;;;;;;;5.13;4.82;;;30.40;50.40;;;;;;4925608;28;92047;-83
2021/06/08 12:00:17;;;;;;;5.65;5.25;;;30.20;50.10;;;;;;4928132;28;91995;-84
2021/06/08 12:02:49;;;;;;;5.00;4.60;;;30.20;50.20;;;;;;4929310;28;91922;-84
2021/06/08 12:05:24;;;;;;;5.75;5.35;;;30.10;51.20;;;;;;4929478;28;91393;-82
2021/06/08 12:08:01;;;;;;;5.60;5.15;;;30.10;52.00;;;;;;4930844;28;92973;-83
2021/06/08 12:10:27;;;;;;;6.18;5.78;;;29.80;52.00;;;;;;4930486;28;92637;-82
2021/06/08 12:12:53;;;;;;;6.30;5.80;;;29.80;52.30;;;;;;4931419;28;91850;-82
2021/06/08 12:15:25;;;;;;;6.38;5.95;;;29.90;52.80;;;;;;4931014;28;91400;-82
2021/06/08 12:18:09;;;;;;;5.57;5.18;;;30.00;53.30;;;;;;4931178;28;93116;-82
2021/06/08 12:23:59;;;;;;;6.60;6.13;;;31.60;52.00;;;;;;4927521;28;91858;-83
2021/06/08 12:26:24;;;;;;;6.93;6.35;;;32.20;50.40;;;;;;4922290;28;90618;-83
2021/06/08 12:29:13;;;;;;;6.80;6.22;;;32.30;49.50;;;;;;4930190;28;91915;-83
2021/06/08 12:31:39;;;;;;;7.72;7.13;;;32.40;50.40;;;;;;4917541;28;91953;-83
2021/06/08 12:34:13;;;;;;;7.90;7.30;;;32.10;49.80;;;;;;4918019;28;92710;-83
2021/06/08 12:36:40;;;;;;;9.05;7.22;;;31.70;50.40;;;;;;4922747;28;91862;-82
2021/06/08 12:39:12;;;;;;;6.63;6.07;;;31.80;50.40;;;;;;4919658;28;92230;-82
2021/06/08 12:45:00;;;;;;;7.57;6.97;;;34.60;46.70;;;;;;4920464;28;91759;-82
2021/06/08 12:47:32;;;;;;;7.43;6.93;;;36.30;45.70;;;;;;4914420;28;92037;-83
2021/06/08 12:50:05;;;;;;;7.78;7.18;;;37.30;42.60;;;;;;4913148;28;94121;-83
2021/06/08 12:52:31;;;;;;;8.20;7.60;;;37.90;42.90;;;;;;4932238;28;92082;-84
2021/06/08 12:54:56;;;;;;;8.20;7.63;;;38.40;42.60;;;;;;4933604;28;91845;-84
2021/06/08 12:57:33;;;;;;;10.85;9.85;;;38.60;41.40;;;;;;4923969;28;91877;-84
2021/06/08 13:00:15;;;;;;;9.43;8.73;;;38.80;40.00;;;;;;4923067;28;92903;-84
2021/06/08 13:02:41;;;;;;;8.93;8.32;;;39.10;40.60;;;;;;4921008;28;94458;-84
2021/06/08 13:05:10;;;;;;;8.90;8.30;;;39.30;39.50;;;;;;4915943;28;91987;-85
2021/06/08 13:07:39;;;;;;;8.35;7.78;;;38.90;40.20;;;;;;4925895;28;92724;-84
2021/06/08 13:10:08;;;;;;;8.43;7.82;;;39.00;39.90;;;;;;4927644;28;92078;-83
2021/06/08 13:12:47;;;;;;;9.80;9.07;;;39.40;39.50;;;;;;4914697;28;92426;-84
2021/06/08 13:15:16;;;;;;;10.90;10.00;;;39.60;38.80;;;;;;4918046;28;91631;-84
2021/06/08 13:17:44;;;;;;;10.83;9.93;;;39.30;38.90;;;;;;4930610;28;90828;-85
2021/06/08 13:20:24;;;;;;;11.18;10.07;;;38.20;40.40;;;;;;4926016;28;92335;-84
2021/06/08 13:22:50;;;;;;;10.93;10.05;;;37.70;41.50;;;;;;4924143;28;92571;-84
2021/06/08 13:25:17;;;;;;;10.90;10.00;;;37.00;42.20;;;;;;4916468;28;92934;-84
2021/06/08 13:27:44;;;;;;;10.73;9.90;;;36.50;43.00;;;;;;4926088;28;91901;-84
2021/06/08 13:30:22;;;;;;;11.30;10.27;;;36.10;43.00;;;;;;4922634;28;92762;-84
2021/06/08 13:33:13;;;;;;;10.75;9.68;;;36.00;42.50;;;;;;4924358;28;92962;-84
2021/06/08 13:35:53;;;;;;;12.15;10.95;;;35.30;44.80;;;;;;4923980;28;91914;-84
2021/06/08 13:38:20;;;;;;;11.18;10.20;;;34.40;47.30;;;;;;4921811;28;92011;-84
2021/06/08 13:40:48;;;;;;;10.73;9.82;;;33.70;47.30;;;;;;4922469;28;92280;-84
2021/06/08 13:43:15;;;;;;;11.18;10.25;;;32.90;49.00;;;;;;4923546;28;92322;-84
2021/06/08 13:45:42;;;;;;;11.90;10.43;;;32.40;48.50;;;;;;4924522;28;91964;-83
2021/06/08 13:48:18;;;;;;;12.57;11.35;;;31.90;48.80;;;;;;4915430;28;92089;-84
2021/06/08 13:50:45;;;;;;;11.40;10.40;;;31.60;49.40;;;;;;4915171;28;93631;-83
2021/06/08 13:53:20;;;;;;;16.00;11.88;;;31.30;50.30;;;;;;4920295;28;93788;-83
2021/06/08 13:56:09;;;;;;;13.18;11.82;;;31.20;51.20;;;;;;4925120;28;92119;-83
2021/06/08 14:01:23;;;;;;;11.35;10.32;;;30.60;52.60;;;;;;4923743;28;92384;-85
2021/06/08 14:04:07;;;;;;;11.98;10.77;;;30.50;54.10;;;;;;4922227;28;93199;-84
2021/06/08 14:06:35;;;;;;;9.68;8.50;;;30.60;53.60;;;;;;4920493;28;92034;-84
2021/06/08 14:09:03;;;;;;;10.55;9.45;;;30.80;53.30;;;;;;4916362;28;91762;-85
2021/06/08 14:11:38;;;;;;;11.32;10.00;;;31.00;51.30;;;;;;4928889;28;91865;-83
2021/06/08 14:14:04;;;;;;;12.90;11.68;;;31.00;51.80;;;;;;4910697;28;92281;-84
2021/06/08 14:16:31;;;;;;;12.10;10.90;;;30.90;51.80;;;;;;4914372;28;92706;-84
2021/06/08 14:18:57;;;;;;;12.85;11.55;;;30.80;52.80;;;;;;4918209;28;92045;-83
2021/06/08 14:21:23;;;;;;;9.75;8.93;;;30.90;52.00;;;;;;4925546;28;92242;-82
2021/06/08 14:23:54;;;;;;;11.02;10.02;;;31.10;52.30;;;;;;4927883;28;92046;-82
2021/06/08 14:26:21;;;;;;;10.52;9.52;;;31.40;51.20;;;;;;4937496;28;91791;-82
2021/06/08 14:28:47;;;;;;;11.57;10.57;;;31.60;50.50;;;;;;4928891;28;92126;-84
2021/06/08 14:31:13;;;;;;;11.90;10.88;;;31.90;50.00;;;;;;4917629;28;92234;-83
2021/06/08 14:33:38;;;;;;;12.77;11.57;;;32.30;51.50;;;;;;4911818;28;91330;-83
2021/06/08 14:36:05;;;;;;;13.48;12.20;;;32.60;48.30;;;;;;4916338;28;91321;-83
2021/06/08 14:38:33;;;;;;;11.57;10.57;;;32.10;47.90;;;;;;4917047;28;92143;-83
2021/06/08 14:40:59;;;;;;;12.25;11.05;;;31.80;49.40;;;;;;4928410;28;93133;-83
2021/06/08 14:43:25;;;;;;;11.77;10.57;;;31.90;50.50;;;;;;4917170;28;94147;-83
2021/06/08 14:45:51;;;;;;;13.60;12.27;;;32.20;49.80;;;;;;4930138;28;91618;-83
2021/06/08 14:48:16;;;;;;;11.82;10.80;;;32.30;50.00;;;;;;4936294;28;92030;-83
2021/06/08 14:50:42;;;;;;;10.52;9.52;;;32.30;49.50;;;;;;4933281;28;91737;-85
2021/06/08 14:53:10;;;;;;;12.02;10.82;;;32.30;49.60;;;;;;4936504;28;91910;-84
2021/06/08 14:55:36;;;;;;;10.68;9.77;;;32.30;49.50;;;;;;4949684;28;91175;-83
2021/06/08 14:58:02;;;;;;;12.48;11.20;;;32.40;49.80;;;;;;4934536;28;91137;-83
2021/06/08 15:00:28;;;;;;;12.18;11.07;;;32.40;49.90;;;;;;4932665;28;91770;-83
2021/06/08 15:02:54;;;;;;;11.43;10.43;;;31.90;49.40;;;;;;4931738;28;92705;-82
2021/06/08 15:05:20;;;;;;;11.30;10.32;;;31.10;53.00;;;;;;4933712;28;92711;-82
2021/06/08 15:07:45;;;;;;;12.10;10.90;;;30.40;54.80;;;;;;4910601;28;91560;-84
2021/06/08 15:10:11;;;;;;;11.68;10.50;;;29.60;56.50;;;;;;4920031;28;91869;-84
2021/06/08 15:12:37;;;;;;;13.00;11.75;;;29.10;57.90;;;;;;4912051;28;91854;-84
2021/06/08 15:15:05;;;;;;;11.75;10.63;;;28.70;59.90;;;;;;4913257;28;91778;-84
2021/06/08 15:18:07;;;;;;;12.00;10.70;;;28.20;61.00;;;;;;4910642;28;91924;-83
2021/06/08 15:20:33;;;;;;;12.32;11.07;;;27.50;61.90;;;;;;4912707;28;92155;-83
2021/06/08 15:22:59;;;;;;;11.82;10.63;;;27.00;64.10;;;;;;4911497;28;91318;-83
2021/06/08 15:25:25;;;;;;;12.70;11.40;;;26.70;65.00;;;;;;4917407;28;91813;-83
2021/06/08 15:27:51;;;;;;;12.70;11.30;;;26.40;65.20;;;;;;4938841;28;91777;-84
2021/06/08 15:30:18;;;;;;;12.85;10.98;;;26.10;66.00;;;;;;4919127;28;93266;-85
2021/06/08 15:32:44;;;;;;;12.40;11.20;;;25.80;67.50;;;;;;4921864;28;93136;-84
2021/06/08 15:35:10;;;;;;;10.50;9.50;;;25.60;68.40;;;;;;4911513;28;91815;-85
2021/06/08 15:37:36;;;;;;;12.23;10.93;;;25.50;69.00;;;;;;4916448;28;91981;-84
2021/06/08 15:40:03;;;;;;;12.73;11.43;;;25.20;69.20;;;;;;4921351;28;93189;-85
2021/06/08 15:42:30;;;;;;;12.98;11.15;;;25.10;70.50;;;;;;4924634;28;92380;-84
2021/06/08 15:44:56;;;;;;;12.70;11.40;;;24.60;70.50;;;;;;4924378;28;92705;-85
2021/06/08 15:47:23;;;;;;;10.45;9.45;;;24.30;72.80;;;;;;4924496;28;91435;-84
2021/06/08 15:49:51;;;;;;;11.90;10.70;;;24.40;72.40;;;;;;4919301;28;92924;-85
2021/06/08 15:52:17;;;;;;;13.02;11.70;;;24.30;75.00;;;;;;4927656;28;92019;-83
2021/06/08 15:54:43;;;;;;;14.02;10.95;;;23.90;75.80;;;;;;4924490;28;93032;-84
2021/06/08 15:57:09;;;;;;;12.95;11.05;;;23.90;77.30;;;;;;4920434;28;91789;-83
2021/06/08 15:59:35;;;;;;;12.32;11.13;;;24.00;77.80;;;;;;4909416;28;92303;-83
2021/06/08 16:02:00;;;;;;;12.32;10.15;;;23.90;79.20;;;;;;4924390;28;92918;-83
2021/06/08 16:04:26;;;;;;;8.70;7.90;;;23.90;79.00;;;;;;4920240;28;91800;-83
2021/06/08 16:06:52;;;;;;;6.28;5.78;;;23.10;78.10;;;;;;4927648;28;91950;-83
2021/06/08 16:09:17;;;;;;;6.20;5.32;;;23.10;79.90;;;;;;4921639;28;92588;-83
2021/06/08 16:12:27;;;;;;;6.90;6.40;;;23.00;81.40;;;;;;4929331;28;90974;-83
2021/06/08 16:14:53;;;;;;;5.23;4.83;;;22.70;82.00;;;;;;4926738;28;91844;-83
2021/06/08 16:17:19;;;;;;;5.15;4.63;;;22.70;81.90;;;;;;4925784;28;91981;-83
2021/06/08 16:19:45;;;;;;;4.88;4.57;;;23.00;84.00;;;;;;4923354;28;92820;-83
2021/06/08 16:22:10;;;;;;;5.50;5.00;;;23.40;83.90;;;;;;4930423;28;93281;-84
2021/06/08 16:24:36;;;;;;;6.25;4.85;;;23.10;83.90;;;;;;4926098;28;91849;-84
2021/06/08 16:27:03;;;;;;;5.50;4.72;;;23.20;85.60;;;;;;4928400;28;91773;-83
2021/06/08 16:29:29;;;;;;;5.75;4.88;;;23.20;88.00;;;;;;4910330;28;92065;-84